Time;durP1;ratioP1;P1;durP2;ratioP2;P2;SDS_P1;SDS_P2;PMS_P1;PMS_P2;Temp;Humidity;BMP_temperature;BMP_pressure;BME280_temperature;BME280_humidity;BME280_pressure;Samples;Min_cycle;Max_cycle;Signal;HPM_P1;HPM_P2
2021/04/06 00:01:14;;;;;;;4.93;3.53;;;7.40;55.20;;;;;;5956455;23;20383;-87
2021/04/06 00:03:41;;;;;;;4.20;3.80;;;7.30;55.40;;;;;;5933861;23;20023;-86
2021/04/06 00:06:07;;;;;;;4.55;4.15;;;7.20;56.10;;;;;;5982735;23;20019;-88
2021/04/06 00:08:34;;;;;;;7.05;4.47;;;7.20;56.70;;;;;;5957788;23;20497;-89
2021/04/06 00:11:03;;;;;;;5.43;4.57;;;7.20;56.80;;;;;;5961363;23;20467;-88
2021/04/06 00:13:33;;;;;;;6.00;4.53;;;7.10;56.80;;;;;;5981010;23;20023;-87
2021/04/06 00:16:03;;;;;;;5.80;4.40;;;7.10;57.30;;;;;;5936923;23;20019;-87
2021/04/06 00:18:29;;;;;;;4.60;4.13;;;7.20;57.30;;;;;;5955748;23;20050;-87
2021/04/06 00:20:58;;;;;;;2.65;2.45;;;7.20;57.30;;;;;;5937114;23;20012;-87
2021/04/06 00:23:24;;;;;;;2.28;2.10;;;7.20;57.50;;;;;;6001333;23;20011;-85
2021/04/06 00:25:50;;;;;;;3.75;3.38;;;7.20;57.90;;;;;;5976825;23;20026;-87
2021/04/06 00:28:35;;;;;;;4.93;4.25;;;7.10;58.00;;;;;;5954316;23;20000;-85
2021/04/06 00:31:03;;;;;;;5.60;4.45;;;7.10;57.80;;;;;;6001942;23;20019;-87
2021/04/06 00:33:33;;;;;;;5.88;4.35;;;7.20;57.60;;;;;;5944211;23;20023;-87
2021/04/06 00:36:01;;;;;;;5.78;4.30;;;7.20;57.50;;;;;;5978516;23;20007;-87
2021/04/06 00:38:32;;;;;;;5.80;4.35;;;7.30;57.40;;;;;;5983427;23;20004;-86
2021/04/06 00:41:04;;;;;;;3.45;3.15;;;7.30;57.30;;;;;;5951345;23;20502;-87
2021/04/06 00:43:35;;;;;;;5.80;4.20;;;7.30;57.60;;;;;;5941794;23;20027;-87
2021/04/06 00:46:03;;;;;;;3.20;2.90;;;7.30;58.10;;;;;;5976048;23;20026;-86
2021/04/06 00:48:30;;;;;;;5.78;4.32;;;7.20;58.70;;;;;;5952129;23;20039;-87
2021/04/06 00:51:14;;;;;;;3.80;3.40;;;7.20;58.80;;;;;;5938605;23;20031;-86
2021/04/06 00:53:55;;;;;;;5.22;4.40;;;7.20;58.90;;;;;;5963624;23;20037;-86
2021/04/06 00:56:28;;;;;;;14.85;5.38;;;7.20;59.00;;;;;;5963335;23;20072;-87
2021/04/06 00:59:03;;;;;;;8.15;5.28;;;7.20;58.70;;;;;;5939215;23;20026;-87
2021/04/06 01:01:38;;;;;;;4.20;3.80;;;7.20;58.70;;;;;;5960257;23;20155;-87
2021/04/06 01:04:18;;;;;;;4.95;4.00;;;7.20;58.50;;;;;;5983980;23;20019;-87
2021/04/06 01:06:57;;;;;;;4.65;4.00;;;7.10;58.90;;;;;;5959403;23;20019;-85
2021/04/06 01:09:53;;;;;;;6.43;5.47;;;7.10;59.10;;;;;;5957270;23;20510;-86
2021/04/06 01:12:27;;;;;;;4.35;3.53;;;7.00;59.60;;;;;;5981995;23;20015;-85
2021/04/06 01:14:55;;;;;;;1.90;1.77;;;7.00;59.60;;;;;;5959539;23;20015;-86
2021/04/06 01:17:27;;;;;;;5.45;4.45;;;7.00;59.80;;;;;;5934651;23;20087;-86
2021/04/06 01:19:55;;;;;;;4.95;4.43;;;6.90;59.90;;;;;;5983374;23;20487;-85
2021/04/06 01:22:21;;;;;;;6.63;4.88;;;6.80;60.40;;;;;;5944259;23;20026;-88
2021/04/06 01:24:48;;;;;;;5.80;4.80;;;6.90;60.10;;;;;;5967231;23;20014;-87
2021/04/06 01:27:18;;;;;;;5.63;4.75;;;6.80;60.00;;;;;;5971095;23;20067;-87
2021/04/06 01:30:04;;;;;;;11.15;5.90;;;6.80;60.00;;;;;;5973341;23;20510;-86
2021/04/06 01:32:30;;;;;;;4.90;4.05;;;6.80;60.00;;;;;;6020805;23;20023;-84
2021/04/06 01:34:57;;;;;;;6.60;5.13;;;6.80;60.20;;;;;;5970709;23;20019;-86
2021/04/06 01:37:25;;;;;;;6.35;5.57;;;6.80;60.40;;;;;;5941942;23;20046;-87
2021/04/06 01:39:54;;;;;;;9.70;4.05;;;6.80;60.00;;;;;;5940381;23;20015;-87
2021/04/06 01:42:22;;;;;;;4.38;3.97;;;6.80;59.80;;;;;;5993421;23;20070;-86
2021/04/06 01:44:53;;;;;;;5.97;4.85;;;6.80;60.50;;;;;;6017245;23;20011;-86
2021/04/06 01:47:21;;;;;;;6.78;5.45;;;6.80;60.40;;;;;;5961574;23;20612;-86
2021/04/06 01:49:48;;;;;;;12.43;6.07;;;6.80;60.00;;;;;;5943423;23;20105;-85
2021/04/06 01:52:14;;;;;;;9.50;5.50;;;7.00;59.80;;;;;;5965517;23;20421;-87
2021/04/06 01:54:42;;;;;;;7.20;5.93;;;7.00;59.50;;;;;;5962819;23;20015;-86
2021/04/06 01:57:18;;;;;;;7.15;5.53;;;7.10;59.20;;;;;;5983059;23;20102;-85
2021/04/06 01:59:57;;;;;;;8.05;5.30;;;7.20;59.00;;;;;;5964228;23;20026;-86
2021/04/06 02:02:28;;;;;;;10.82;5.75;;;7.30;58.90;;;;;;5960760;23;20019;-85
2021/04/06 02:04:59;;;;;;;7.80;5.97;;;7.30;58.60;;;;;;5967522;23;20050;-85
2021/04/06 02:07:34;;;;;;;13.38;6.93;;;7.40;58.40;;;;;;5965106;23;20033;-86
2021/04/06 02:10:01;;;;;;;8.35;6.22;;;7.40;58.30;;;;;;5940604;23;20077;-86
2021/04/06 02:12:27;;;;;;;14.73;6.40;;;7.40;58.20;;;;;;5959450;23;20026;-85
2021/04/06 02:14:57;;;;;;;11.02;6.40;;;7.40;58.10;;;;;;5957416;23;20019;-87
2021/04/06 02:17:34;;;;;;;13.70;6.65;;;7.50;58.20;;;;;;5968280;23;20086;-94
2021/04/06 02:20:06;;;;;;;7.80;5.70;;;7.50;58.10;;;;;;5950697;23;20019;-91
2021/04/06 02:22:32;;;;;;;8.55;6.03;;;7.50;58.10;;;;;;5988379;23;20055;-90
2021/04/06 02:24:59;;;;;;;15.05;6.43;;;7.50;58.10;;;;;;5969924;23;20045;-93
2021/04/06 02:27:29;;;;;;;10.25;6.60;;;7.50;58.10;;;;;;5974953;23;20553;-91
2021/04/06 02:29:58;;;;;;;9.82;6.05;;;7.60;57.90;;;;;;5949888;23;20375;-95
2021/04/06 02:32:31;;;;;;;18.17;6.35;;;7.70;57.60;;;;;;5950585;23;20470;-92
2021/04/06 02:34:59;;;;;;;14.60;6.10;;;7.90;57.40;;;;;;5993103;23;20015;-93
2021/04/06 02:37:31;;;;;;;10.15;5.78;;;8.00;57.10;;;;;;5967069;23;20015;-89
2021/04/06 02:40:00;;;;;;;14.65;6.20;;;8.10;56.80;;;;;;6001103;23;20059;-86
2021/04/06 02:42:31;;;;;;;15.30;7.20;;;8.20;56.50;;;;;;5939782;23;20018;-88
2021/04/06 02:45:14;;;;;;;10.50;5.47;;;8.30;56.20;;;;;;5985951;23;20015;-90
2021/04/06 02:48:03;;;;;;;8.73;5.97;;;8.40;55.80;;;;;;5964153;23;20095;-92
2021/04/06 02:50:30;;;;;;;14.60;6.32;;;8.40;55.80;;;;;;5970250;23;20074;-91
2021/04/06 02:52:56;;;;;;;6.93;5.72;;;8.40;55.90;;;;;;5940442;23;20023;-88
2021/04/06 02:55:24;;;;;;;9.70;4.93;;;8.40;55.70;;;;;;5938795;23;20098;-87
2021/04/06 02:57:53;;;;;;;9.52;5.20;;;8.30;55.50;;;;;;5960974;23;20038;-89
2021/04/06 03:00:28;;;;;;;9.93;5.07;;;8.20;55.70;;;;;;5937182;23;20125;-85
2021/04/06 03:02:58;;;;;;;16.48;6.47;;;8.10;55.90;;;;;;5981736;23;20082;-84
2021/04/06 03:05:39;;;;;;;15.55;6.75;;;8.10;56.20;;;;;;5943366;23;20018;-86
2021/04/06 03:08:06;;;;;;;16.15;6.65;;;8.20;56.30;;;;;;5941050;23;20025;-88
2021/04/06 03:10:36;;;;;;;22.30;7.57;;;8.20;56.20;;;;;;5934557;23;20015;-86
2021/04/06 03:13:11;;;;;;;14.93;6.65;;;8.30;56.00;;;;;;5961941;23;20026;-87
2021/04/06 03:15:41;;;;;;;15.43;6.57;;;8.50;55.90;;;;;;5938975;23;20034;-87
2021/04/06 03:18:11;;;;;;;15.75;7.45;;;8.60;55.60;;;;;;5982935;23;20023;-87
2021/04/06 03:20:39;;;;;;;12.00;6.47;;;8.80;55.30;;;;;;5939411;23;20034;-87
2021/04/06 03:23:06;;;;;;;16.45;6.03;;;8.90;55.00;;;;;;5963898;23;20045;-86
2021/04/06 03:25:33;;;;;;;15.73;6.57;;;9.10;54.70;;;;;;5968419;23;20096;-87
2021/04/06 03:28:10;;;;;;;19.65;8.23;;;9.20;54.40;;;;;;5970978;23;20038;-87
2021/04/06 03:30:37;;;;;;;28.92;7.72;;;9.30;54.20;;;;;;5949459;23;20023;-88
2021/04/06 03:33:06;;;;;;;13.23;4.95;;;9.40;53.80;;;;;;5948728;23;20391;-86
2021/04/06 03:35:34;;;;;;;27.73;7.10;;;9.40;53.40;;;;;;5992667;23;20026;-85
2021/04/06 03:38:02;;;;;;;17.45;6.82;;;9.50;53.50;;;;;;5990897;23;20015;-87
2021/04/06 03:40:37;;;;;;;7.82;5.65;;;9.60;54.80;;;;;;5993570;23;20371;-88
2021/04/06 03:43:16;;;;;;;12.73;5.70;;;9.70;53.40;;;;;;5967454;23;20022;-86
2021/04/06 03:46:01;;;;;;;24.15;6.00;;;9.90;53.00;;;;;;5944276;23;20019;-88
2021/04/06 03:48:30;;;;;;;49.60;8.50;;;10.00;52.50;;;;;;5977734;23;20054;-88
2021/04/06 03:50:57;;;;;;;21.73;5.97;;;10.20;52.30;;;;;;5982729;23;20063;-89
2021/04/06 03:53:25;;;;;;;;;;;10.20;52.00;;;;;;6005751;23;20026;-88
2021/04/06 03:56:12;;;;;;;13.50;5.00;;;10.30;51.80;;;;;;5958823;23;19976;-88
2021/04/06 03:58:45;;;;;;;3.88;3.47;;;10.30;51.50;;;;;;5980811;23;20019;-90
2021/04/06 04:01:15;;;;;;;8.98;4.30;;;10.20;51.00;;;;;;5955971;23;20487;-88
2021/04/06 04:03:41;;;;;;;6.10;4.15;;;10.20;51.40;;;;;;5979351;23;20019;-88
2021/04/06 04:06:08;;;;;;;7.47;3.70;;;10.20;51.50;;;;;;5975493;23;20011;-89
2021/04/06 04:08:35;;;;;;;8.45;4.53;;;10.20;51.50;;;;;;5978795;23;20030;-89
2021/04/06 04:11:01;;;;;;;;;;;10.20;51.30;;;;;;6001481;23;20082;-91
2021/04/06 04:13:28;;;;;;;6.50;3.75;;;10.20;51.30;;;;;;5981633;23;20014;-87
2021/04/06 04:15:54;;;;;;;7.30;3.97;;;10.30;51.10;;;;;;6004544;23;20098;-92
2021/04/06 04:18:20;;;;;;;17.00;5.03;;;10.30;50.90;;;;;;5981196;23;20094;-91
2021/04/06 04:20:47;;;;;;;9.90;4.22;;;10.30;50.90;;;;;;5975202;23;20015;-88
2021/04/06 04:23:14;;;;;;;11.50;4.80;;;10.30;50.90;;;;;;5948190;23;20034;-88
2021/04/06 04:25:40;;;;;;;19.77;6.00;;;10.40;50.90;;;;;;5973493;23;20023;-88
2021/04/06 04:28:06;;;;;;;35.58;6.35;;;10.50;52.00;;;;;;5973675;23;20029;-88
2021/04/06 04:30:38;;;;;;;11.18;6.00;;;10.50;50.60;;;;;;5976134;23;20029;-87
2021/04/06 04:33:06;;;;;;;7.97;4.72;;;10.60;50.50;;;;;;5997963;23;20038;-87
2021/04/06 04:35:32;;;;;;;14.98;6.18;;;10.50;50.20;;;;;;5999936;23;20014;-88
2021/04/06 04:38:00;;;;;;;18.80;7.13;;;10.50;50.30;;;;;;5973295;23;20019;-89
2021/04/06 04:40:26;;;;;;;14.10;6.75;;;10.60;50.50;;;;;;5993641;23;20144;-88
2021/04/06 04:42:53;;;;;;;14.65;6.95;;;10.60;50.30;;;;;;5943068;23;20015;-90
2021/04/06 04:45:20;;;;;;;14.35;6.10;;;10.70;50.20;;;;;;5973866;23;20035;-88
2021/04/06 04:47:47;;;;;;;17.52;6.70;;;10.70;50.10;;;;;;5949489;23;20023;-89
2021/04/06 04:50:14;;;;;;;16.30;7.05;;;10.70;50.00;;;;;;5969477;23;20561;-89
2021/04/06 04:52:47;;;;;;;14.13;6.35;;;10.70;50.00;;;;;;5945844;23;20050;-88
2021/04/06 04:55:15;;;;;;;21.42;6.57;;;10.80;49.90;;;;;;5967829;23;20043;-87
2021/04/06 04:57:41;;;;;;;16.98;6.63;;;10.80;49.80;;;;;;5969868;23;20011;-88
2021/04/06 05:00:09;;;;;;;13.20;6.93;;;10.70;49.70;;;;;;5965726;23;20034;-86
2021/04/06 05:02:35;;;;;;;20.40;6.97;;;10.80;49.80;;;;;;5944487;23;20037;-86
2021/04/06 05:05:03;;;;;;;22.73;7.32;;;10.80;49.80;;;;;;5973055;23;20014;-87
2021/04/06 05:07:29;;;;;;;24.40;8.57;;;10.90;49.60;;;;;;5969023;23;20031;-90
2021/04/06 05:09:56;;;;;;;14.60;5.22;;;10.90;49.60;;;;;;5967572;23;20050;-86
2021/04/06 05:12:23;;;;;;;12.00;6.07;;;10.90;49.50;;;;;;5945242;23;20015;-87
2021/04/06 05:14:49;;;;;;;16.85;5.63;;;10.80;49.40;;;;;;5971929;23;20023;-87
2021/04/06 05:17:15;;;;;;;11.60;5.22;;;10.80;49.50;;;;;;5994064;23;20015;-88
2021/04/06 05:19:42;;;;;;;13.82;5.97;;;10.80;49.80;;;;;;5962140;23;20047;-88
2021/04/06 05:22:09;;;;;;;17.10;5.57;;;10.70;49.70;;;;;;5964968;23;20047;-88
2021/04/06 05:24:35;;;;;;;14.38;4.72;;;10.70;49.80;;;;;;5963534;23;20015;-86
2021/04/06 05:27:02;;;;;;;14.10;4.95;;;10.70;49.90;;;;;;5967696;23;20091;-87
2021/04/06 05:29:28;;;;;;;17.17;5.55;;;10.70;49.80;;;;;;5965400;23;20089;-87
2021/04/06 05:31:55;;;;;;;8.70;4.35;;;10.80;50.10;;;;;;5970967;23;20019;-89
2021/04/06 05:34:21;;;;;;;12.15;4.40;;;10.80;49.80;;;;;;5966704;23;20048;-87
2021/04/06 05:36:48;;;;;;;15.43;4.80;;;10.80;49.60;;;;;;5983643;23;20054;-88
2021/04/06 05:39:15;;;;;;;12.55;4.03;;;10.80;49.60;;;;;;5938536;23;20019;-85
2021/04/06 05:41:49;;;;;;;7.85;4.43;;;10.90;49.50;;;;;;5962354;23;20043;-87
2021/04/06 05:44:16;;;;;;;8.60;5.13;;;10.90;49.20;;;;;;5941408;23;20019;-85
2021/04/06 05:46:47;;;;;;;;;;;10.90;49.20;;;;;;5970753;23;20007;-89
2021/04/06 05:49:25;;;;;;;14.55;6.05;;;10.90;49.30;;;;;;5976062;23;19930;-90
2021/04/06 05:51:53;;;;;;;16.55;6.65;;;10.90;49.10;;;;;;5967338;23;20023;-89
2021/04/06 05:54:19;;;;;;;18.02;5.82;;;10.90;49.20;;;;;;5961635;23;20019;-89
2021/04/06 05:56:45;;;;;;;11.32;5.78;;;11.00;49.20;;;;;;5960522;23;20074;-90
2021/04/06 05:59:12;;;;;;;13.55;6.28;;;11.00;49.00;;;;;;5965396;23;20091;-88
2021/04/06 06:01:41;;;;;;;27.92;6.38;;;11.10;49.00;;;;;;6001421;23;20022;-93
2021/04/06 06:04:18;;;;;;;16.13;6.30;;;11.10;49.00;;;;;;5964347;23;20019;-91
2021/04/06 06:06:45;;;;;;;6.07;3.88;;;11.10;48.70;;;;;;5960202;23;20090;-90
2021/04/06 06:09:13;;;;;;;10.95;5.50;;;11.20;48.50;;;;;;5983768;23;20051;-90
2021/04/06 06:11:58;;;;;;;13.65;5.70;;;11.20;48.50;;;;;;5984211;23;20102;-89
2021/04/06 06:14:51;;;;;;;8.73;5.10;;;11.10;48.30;;;;;;6009441;23;20078;-90
2021/04/06 06:17:26;;;;;;;10.07;5.32;;;11.00;48.40;;;;;;5989057;23;20053;-90
2021/04/06 06:19:57;;;;;;;14.15;7.35;;;10.90;48.60;;;;;;5967625;23;20015;-90
2021/04/06 06:22:28;;;;;;;14.30;6.35;;;10.90;48.80;;;;;;5940103;23;20027;-89
2021/04/06 06:25:06;;;;;;;16.92;6.68;;;10.80;48.90;;;;;;5981967;23;20022;-90
2021/04/06 06:27:39;;;;;;;13.05;6.28;;;10.80;48.90;;;;;;5985889;23;20522;-89
2021/04/06 06:30:30;;;;;;;13.23;6.82;;;10.80;48.90;;;;;;5999921;23;20023;-90
2021/04/06 06:33:20;;;;;;;14.32;7.18;;;10.80;48.90;;;;;;5962416;23;20115;-90
2021/04/06 06:35:57;;;;;;;9.48;6.00;;;10.70;48.90;;;;;;6006868;23;20102;-88
2021/04/06 06:38:30;;;;;;;8.73;5.43;;;10.70;49.00;;;;;;5981904;23;20470;-91
2021/04/06 06:41:17;;;;;;;13.57;6.10;;;10.60;48.90;;;;;;5981590;23;20110;-89
2021/04/06 06:43:56;;;;;;;10.10;5.75;;;10.60;49.00;;;;;;5986982;23;20019;-88
2021/04/06 06:46:35;;;;;;;9.95;6.03;;;10.60;48.90;;;;;;5960472;23;20089;-90
2021/04/06 06:49:06;;;;;;;11.07;5.53;;;10.50;49.00;;;;;;5982853;23;20019;-88
2021/04/06 06:51:33;;;;;;;11.05;6.20;;;10.50;49.20;;;;;;5959432;23;20026;-88
2021/04/06 06:54:00;;;;;;;9.32;5.47;;;10.40;49.30;;;;;;5982348;23;20019;-90
2021/04/06 06:56:34;;;;;;;10.23;6.18;;;10.40;49.40;;;;;;5968775;23;20009;-90
2021/04/06 06:59:01;;;;;;;15.93;6.10;;;10.30;49.40;;;;;;5974631;23;20100;-89
2021/04/06 07:01:30;;;;;;;11.90;6.13;;;10.30;49.50;;;;;;5962602;23;20034;-90
2021/04/06 07:04:13;;;;;;;14.13;6.07;;;10.30;49.50;;;;;;5961275;23;20093;-89
2021/04/06 07:06:47;;;;;;;24.08;7.40;;;10.30;49.50;;;;;;5963617;23;20026;-90
2021/04/06 07:09:29;;;;;;;13.23;6.20;;;10.30;49.50;;;;;;5962175;23;20025;-89
2021/04/06 07:12:03;;;;;;;12.75;6.85;;;10.40;49.60;;;;;;5961804;23;20026;-89
2021/04/06 07:15:56;;;;;;;13.27;7.53;;;10.30;49.40;;;;;;4437841;31;683067;-90
2021/04/06 07:18:25;;;;;;;10.95;7.10;;;10.40;49.40;;;;;;5078286;27;20109;-91
2021/04/06 07:20:52;;;;;;;13.57;7.65;;;10.30;49.50;;;;;;5078119;27;20098;-88
2021/04/06 07:23:55;;;;;;;13.38;7.38;;;10.30;49.60;;;;;;5092830;27;20034;-90
2021/04/06 07:26:21;;;;;;;8.63;7.10;;;10.20;49.60;;;;;;5091313;27;20118;-87
2021/04/06 07:28:48;;;;;;;17.60;8.25;;;10.20;49.70;;;;;;5118436;27;20038;-89
2021/04/06 07:31:15;;;;;;;;;;;10.20;49.80;;;;;;5100894;27;20039;-89
2021/04/06 07:33:45;;;;;;;12.18;7.68;;;10.30;50.00;;;;;;5078464;27;19927;-92
2021/04/06 07:36:16;;;;;;;14.30;7.68;;;10.20;49.80;;;;;;5101329;27;20085;-93
2021/04/06 07:38:51;;;;;;;13.70;7.82;;;10.30;49.80;;;;;;5089429;27;20026;-91
2021/04/06 07:41:25;;;;;;;14.60;7.53;;;10.20;49.80;;;;;;5093182;27;20105;-90
2021/04/06 07:43:54;;;;;;;14.93;7.30;;;10.30;49.80;;;;;;5088749;27;20037;-90
2021/04/06 07:46:36;;;;;;;17.60;7.18;;;10.40;49.90;;;;;;5120696;27;20056;-87
2021/04/06 07:49:21;;;;;;;12.20;6.60;;;10.40;49.90;;;;;;5137056;27;20109;-89
2021/04/06 07:51:51;;;;;;;19.10;6.72;;;10.50;49.70;;;;;;5124904;28;20042;-91
2021/04/06 07:54:31;;;;;;;10.93;6.30;;;10.60;49.40;;;;;;5095551;28;20046;-91
2021/04/06 07:57:02;;;;;;;12.07;6.05;;;10.60;49.40;;;;;;5100253;28;20076;-90
2021/04/06 07:59:28;;;;;;;13.20;6.70;;;10.60;49.00;;;;;;5065862;28;20071;-90
2021/04/06 08:01:55;;;;;;;9.35;5.85;;;10.60;48.90;;;;;;5095392;28;20072;-88
2021/04/06 08:04:25;;;;;;;19.02;8.00;;;10.60;48.90;;;;;;5088731;28;20043;-91
2021/04/06 08:06:56;;;;;;;14.70;7.50;;;10.60;49.00;;;;;;5090969;28;20035;-92
2021/04/06 08:09:32;;;;;;;26.00;8.27;;;10.60;49.10;;;;;;5057844;28;20034;-90
2021/04/06 08:12:22;;;;;;;20.63;7.75;;;10.60;48.90;;;;;;5089923;28;20110;-91
2021/04/06 08:15:10;;;;;;;12.55;7.00;;;10.60;49.00;;;;;;5091344;28;20051;-93
2021/04/06 08:17:52;;;;;;;13.27;6.60;;;10.70;48.90;;;;;;5090618;28;20041;-91
2021/04/06 08:20:27;;;;;;;21.90;7.45;;;10.70;48.80;;;;;;5075051;28;20042;-93
2021/04/06 08:23:33;;;;;;;14.35;6.53;;;10.70;48.80;;;;;;5066912;28;20027;-88
2021/04/06 08:26:00;;;;;;;17.50;6.93;;;10.70;48.50;;;;;;5085166;28;20062;-91
2021/04/06 08:28:33;;;;;;;9.13;5.95;;;10.70;48.50;;;;;;5077988;28;20031;-90
2021/04/06 08:31:30;;;;;;;16.15;6.70;;;10.70;48.30;;;;;;5057372;28;20050;-91
2021/04/06 08:34:29;;;;;;;13.27;7.25;;;10.70;48.20;;;;;;5060369;28;20473;-90
2021/04/06 08:37:07;;;;;;;14.57;8.20;;;10.70;48.30;;;;;;5086910;28;20076;-91
2021/04/06 08:39:35;;;;;;;23.55;10.52;;;10.70;48.20;;;;;;5092351;28;20039;-90
2021/04/06 08:42:03;;;;;;;15.65;8.32;;;10.80;48.30;;;;;;5076438;28;20088;-90
2021/04/06 08:44:29;;;;;;;17.42;9.65;;;10.90;48.20;;;;;;5058703;28;20045;-91
2021/04/06 08:46:55;;;;;;;22.20;11.43;;;10.90;47.90;;;;;;5057109;28;20035;-90
2021/04/06 08:49:25;;;;;;;17.80;8.98;;;11.00;47.80;;;;;;5073093;28;20035;-89
2021/04/06 08:51:54;;;;;;;21.98;8.15;;;11.00;47.80;;;;;;5073479;28;20071;-90
2021/04/06 08:54:29;;;;;;;14.60;8.32;;;11.00;47.60;;;;;;5066569;28;20027;-92
2021/04/06 08:57:05;;;;;;;11.75;7.72;;;11.00;47.70;;;;;;5074966;28;20076;-92
2021/04/06 08:59:39;;;;;;;27.63;11.40;;;10.90;47.50;;;;;;5042779;28;20035;-90
2021/04/06 09:02:11;;;;;;;35.13;14.05;;;10.90;47.80;;;;;;5075362;28;20043;-90
2021/04/06 09:04:50;;;;;;;21.80;10.23;;;11.00;47.80;;;;;;5059474;28;20100;-92
2021/04/06 09:07:44;;;;;;;8.63;6.18;;;11.10;47.50;;;;;;5077722;28;20453;-92
2021/04/06 09:10:12;;;;;;;16.77;8.87;;;11.20;47.10;;;;;;5061036;28;20035;-84
2021/04/06 09:12:42;;;;;;;27.08;9.38;;;11.20;46.90;;;;;;5057343;28;20261;-89
2021/04/06 09:15:12;;;;;;;16.80;9.50;;;11.10;47.00;;;;;;5056498;28;20043;-88
2021/04/06 09:17:39;;;;;;;12.00;7.55;;;11.10;47.00;;;;;;5075812;28;20050;-88
2021/04/06 09:20:13;;;;;;;;;;;11.10;47.20;;;;;;5077849;28;20043;-87
2021/04/06 09:22:41;;;;;;;15.52;8.30;;;11.10;47.50;;;;;;5062790;28;19954;-89
2021/04/06 09:25:22;;;;;;;15.55;9.05;;;11.00;47.40;;;;;;5053957;28;20032;-90
2021/04/06 09:28:03;;;;;;;20.85;9.93;;;11.00;47.40;;;;;;5068530;28;20411;-88
2021/04/06 09:30:36;;;;;;;11.85;6.95;;;10.90;47.70;;;;;;5069530;28;20035;-86
2021/04/06 09:33:10;;;;;;;20.13;8.55;;;10.90;47.90;;;;;;5052843;28;20039;-85
2021/04/06 09:35:36;;;;;;;20.27;9.23;;;10.90;48.40;;;;;;5054729;28;20443;-89
2021/04/06 09:38:03;;;;;;;13.52;7.35;;;10.80;48.90;;;;;;5053032;28;20035;-91
2021/04/06 09:40:40;;;;;;;21.83;9.85;;;10.80;49.10;;;;;;5058525;28;20041;-91
2021/04/06 09:43:07;;;;;;;22.38;9.77;;;10.80;49.30;;;;;;5036512;28;20049;-88
2021/04/06 09:45:35;;;;;;;23.52;8.93;;;10.70;49.50;;;;;;5086351;28;20035;-89
2021/04/06 09:48:02;;;;;;;15.93;8.10;;;10.70;50.20;;;;;;5061365;28;20039;-89
2021/04/06 09:50:28;;;;;;;;;;;10.70;50.50;;;;;;5081552;28;20058;-90
2021/04/06 09:52:55;;;;;;;15.20;8.95;;;10.60;50.90;;;;;;5076202;28;20012;-91
2021/04/06 09:55:23;;;;;;;11.18;7.70;;;10.60;50.90;;;;;;5039411;28;20092;-89
2021/04/06 09:57:53;;;;;;;10.68;7.28;;;10.50;51.20;;;;;;5056295;28;20031;-88
2021/04/06 10:00:25;;;;;;;11.70;7.53;;;10.50;51.50;;;;;;5054131;28;20039;-90
2021/04/06 10:03:17;;;;;;;15.90;9.23;;;10.40;51.60;;;;;;5072910;28;20039;-91
2021/04/06 10:05:45;;;;;;;19.05;8.90;;;10.30;51.90;;;;;;5060759;28;20039;-87
2021/04/06 10:08:12;;;;;;;23.35;9.85;;;10.30;52.30;;;;;;5063013;28;20105;-90
2021/04/06 10:10:48;;;;;;;16.33;8.30;;;10.20;52.40;;;;;;5056077;28;20046;-87
2021/04/06 10:13:15;;;;;;;16.23;7.63;;;10.20;52.90;;;;;;5053535;28;20035;-90
2021/04/06 10:15:45;;;;;;;22.90;10.38;;;10.10;53.30;;;;;;5050857;28;20072;-89
2021/04/06 10:18:14;;;;;;;21.42;10.23;;;10.00;53.50;;;;;;5080439;28;20028;-87
2021/04/06 10:20:50;;;;;;;20.25;11.60;;;9.90;53.80;;;;;;5067350;28;20521;-89
2021/04/06 10:23:31;;;;;;;21.05;10.48;;;10.00;53.90;;;;;;5049784;28;20110;-91
2021/04/06 10:25:58;;;;;;;17.92;9.48;;;10.00;54.00;;;;;;5049167;28;20040;-88
2021/04/06 10:28:27;;;;;;;16.92;8.80;;;10.00;54.00;;;;;;5022010;28;20111;-88
2021/04/06 10:31:01;;;;;;;20.02;9.02;;;10.10;54.20;;;;;;5027739;28;20028;-87
2021/04/06 10:33:34;;;;;;;21.73;10.52;;;10.00;54.20;;;;;;5043475;28;20137;-89
2021/04/06 10:36:05;;;;;;;20.83;8.63;;;10.10;54.50;;;;;;5056482;28;20040;-89
2021/04/06 10:38:39;;;;;;;24.20;10.98;;;10.00;54.60;;;;;;5066435;28;20035;-89
2021/04/06 10:41:17;;;;;;;19.13;10.45;;;10.00;54.70;;;;;;5083962;28;20562;-90
2021/04/06 10:43:49;;;;;;;17.75;10.32;;;9.90;55.10;;;;;;5049814;28;20046;-88
2021/04/06 10:46:22;;;;;;;15.82;9.50;;;9.90;55.30;;;;;;5081749;28;20115;-89
2021/04/06 10:48:52;;;;;;;17.55;9.70;;;9.90;55.60;;;;;;5040925;28;20409;-91
2021/04/06 10:51:23;;;;;;;14.85;8.40;;;9.90;55.90;;;;;;5036942;28;20036;-90
2021/04/06 10:53:58;;;;;;;12.90;8.32;;;9.80;56.10;;;;;;5069287;28;20036;-90
2021/04/06 10:56:31;;;;;;;20.85;10.95;;;9.70;56.40;;;;;;5018471;28;20131;-87
2021/04/06 10:59:10;;;;;;;22.40;11.60;;;9.60;56.70;;;;;;5066876;28;20032;-88
2021/04/06 11:01:42;;;;;;;12.85;8.63;;;9.60;57.00;;;;;;5068809;28;20032;-87
2021/04/06 11:04:15;;;;;;;10.68;7.68;;;9.50;57.00;;;;;;5035903;28;20027;-88
2021/04/06 11:06:56;;;;;;;12.35;8.93;;;9.50;57.00;;;;;;5034450;28;20079;-89
2021/04/06 11:09:26;;;;;;;12.13;7.43;;;9.50;57.10;;;;;;5040466;28;20032;-88
2021/04/06 11:11:54;;;;;;;12.02;7.63;;;9.50;57.30;;;;;;5037200;28;20040;-86
2021/04/06 11:14:23;;;;;;;13.93;7.28;;;9.50;57.30;;;;;;5049184;28;20072;-88
2021/04/06 11:16:53;;;;;;;13.05;7.95;;;9.60;57.50;;;;;;5058635;28;20122;-89
2021/04/06 11:19:30;;;;;;;9.25;6.80;;;9.60;57.70;;;;;;5078079;28;20043;-92
2021/04/06 11:22:01;;;;;;;9.98;6.65;;;9.50;57.70;;;;;;5075349;28;20046;-90
2021/04/06 11:24:29;;;;;;;10.90;8.25;;;9.40;57.60;;;;;;5087679;28;20046;-90
2021/04/06 11:26:58;;;;;;;11.32;6.78;;;9.50;57.80;;;;;;5054109;28;20042;-89
2021/04/06 11:29:26;;;;;;;11.50;7.20;;;9.40;57.90;;;;;;5071767;28;20035;-88
2021/04/06 11:31:58;;;;;;;12.23;7.18;;;9.40;57.80;;;;;;5059119;28;20035;-93
2021/04/06 11:34:27;;;;;;;7.88;5.10;;;9.50;57.70;;;;;;5056215;28;20039;-90
2021/04/06 11:36:54;;;;;;;9.98;6.90;;;9.50;57.60;;;;;;5067942;28;20054;-87
2021/04/06 11:39:25;;;;;;;11.70;7.57;;;9.50;57.50;;;;;;5053750;28;20047;-88
2021/04/06 11:41:52;;;;;;;11.55;8.13;;;9.50;57.40;;;;;;5077576;28;20035;-89
2021/04/06 11:44:19;;;;;;;11.98;7.53;;;9.50;57.60;;;;;;5043341;28;20036;-88
2021/04/06 11:46:46;;;;;;;11.45;8.43;;;9.50;57.50;;;;;;5053287;28;20036;-88
2021/04/06 11:49:14;;;;;;;13.05;9.18;;;9.50;57.40;;;;;;5054095;28;20104;-88
2021/04/06 11:51:40;;;;;;;12.02;6.65;;;9.50;57.40;;;;;;5054829;28;20036;-89
2021/04/06 11:54:08;;;;;;;10.98;7.53;;;9.60;57.20;;;;;;5071184;28;20058;-91
2021/04/06 11:56:35;;;;;;;10.45;8.02;;;9.60;57.20;;;;;;5054631;28;20107;-91
2021/04/06 11:59:02;;;;;;;19.38;8.80;;;9.60;57.20;;;;;;5087462;28;20042;-90
2021/04/06 12:01:29;;;;;;;16.95;10.50;;;9.60;57.20;;;;;;5065465;28;20039;-89
2021/04/06 12:04:02;;;;;;;12.70;7.05;;;9.60;57.30;;;;;;5070347;28;20032;-89
2021/04/06 12:06:28;;;;;;;16.70;8.13;;;9.60;57.80;;;;;;5094132;28;20047;-90
2021/04/06 12:08:55;;;;;;;19.40;10.45;;;9.50;58.20;;;;;;5042119;28;20040;-91
2021/04/06 12:11:21;;;;;;;23.02;10.48;;;9.40;58.90;;;;;;5086893;28;20048;-90
2021/04/06 12:13:48;;;;;;;20.67;10.77;;;9.30;59.20;;;;;;5058909;28;20036;-89
2021/04/06 12:16:15;;;;;;;21.60;9.55;;;9.20;59.60;;;;;;5059028;28;20474;-89
2021/04/06 12:18:41;;;;;;;13.02;8.77;;;9.20;60.00;;;;;;5059145;28;20035;-90
2021/04/06 12:21:08;;;;;;;16.77;8.75;;;9.10;60.10;;;;;;5060216;28;20114;-90
2021/04/06 12:23:36;;;;;;;18.60;9.45;;;9.10;60.50;;;;;;5057683;28;20050;-91
2021/04/06 12:26:03;;;;;;;14.98;9.60;;;9.00;60.70;;;;;;5042643;28;20098;-90
2021/04/06 12:28:29;;;;;;;16.98;10.00;;;9.00;62.30;;;;;;5068883;28;20031;-88
2021/04/06 12:30:56;;;;;;;18.50;9.50;;;8.90;61.70;;;;;;5094894;28;20023;-89
2021/04/06 12:33:22;;;;;;;21.00;11.88;;;8.90;61.90;;;;;;5061844;28;20043;-90
2021/04/06 12:35:49;;;;;;;21.88;11.63;;;8.80;62.10;;;;;;5079166;28;20054;-88
2021/04/06 12:38:15;;;;;;;22.23;10.73;;;8.80;62.20;;;;;;5095989;28;20094;-90
2021/04/06 12:40:43;;;;;;;18.98;11.32;;;8.80;62.40;;;;;;5079746;28;20294;-89
2021/04/06 12:43:11;;;;;;;19.98;10.82;;;8.80;62.70;;;;;;5079663;28;20031;-90
2021/04/06 12:45:38;;;;;;;20.83;9.98;;;8.70;62.80;;;;;;5095687;28;20068;-89
2021/04/06 12:48:05;;;;;;;19.92;10.50;;;8.70;62.90;;;;;;5062053;28;20015;-89
2021/04/06 12:50:32;;;;;;;18.65;10.50;;;8.70;63.00;;;;;;5079214;28;20095;-90
2021/04/06 12:52:59;;;;;;;18.48;10.75;;;8.80;63.10;;;;;;5078620;28;20035;-89
2021/04/06 12:55:28;;;;;;;22.77;11.05;;;8.80;63.20;;;;;;5093870;28;20058;-89
2021/04/06 12:57:54;;;;;;;;;;;8.70;63.30;;;;;;5094083;28;20030;-91
2021/04/06 13:00:22;;;;;;;25.27;11.30;;;8.70;63.60;;;;;;5072182;28;19927;-89
2021/04/06 13:02:52;;;;;;;22.17;10.90;;;8.70;63.20;;;;;;5067660;28;20045;-91
2021/04/06 13:05:19;;;;;;;20.33;11.02;;;8.70;63.20;;;;;;5062657;28;20424;-90
2021/04/06 13:07:45;;;;;;;19.88;10.88;;;8.70;63.30;;;;;;5056599;28;20045;-89